Archival Weather

NSFA McMurdo Sound

NSFA McMurdo Sound, Antarctica (NZCM)

Report from: Saturday, February 24, 2024 4:55 PM UTC
Current time: Wednesday, April 24, 2024 7:00 PM UTC

Current weather – Weather history – Daily summaries
Weather forecast

Temperature-14.6°C (5.7°F)
Wind chill-21.8°C (-7.2°F)
Dew point-27.7°C (-17.9°F)
Winds 7 kts (3.6 m/s, 8.1 mph) East-Northeast (70°)
Visibility6.2 mi. (10 km)
Clouds Sky clear
Altimeter29.15 in.Hg (987 mB)
Relative humidity32 %
Density altitude-6,233 ft. (-1,900 m)
Sea-level pressure108.8 kPa (1088 mB, 32.12 in.Hg)
Remarks Fully automated report
Automated weather observing station with precipitation discriminator
Flight conditions Visual Meteorological Conditions
Raw dataNZCM 241655Z AUTO 07007KT 9999 CLR M15/M28 A2915 RMK AO2 SLP878 T11461277
An error has occurred. This application may no longer respond until reloaded. Reload 🗙